Time;durP1;ratioP1;P1;durP2;ratioP2;P2;SDS_P1;SDS_P2;PMS_P1;PMS_P2;Temp;Humidity;BMP_temperature;BMP_pressure;BME280_temperature;BME280_humidity;BME280_pressure;Samples;Min_cycle;Max_cycle;Signal;HPM_P1;HPM_P2
2022/05/25 00:00:10;;;;;;;0.95;0.60;;;;;;;12.76;100.00;99176.66;7393429;19;20007;-87
2022/05/25 00:02:40;;;;;;;0.60;0.60;;;;;;;12.76;100.00;99171.09;7396640;19;20011;-87
2022/05/25 00:05:08;;;;;;;1.45;0.50;;;;;;;12.71;100.00;99157.91;7393177;19;20357;-87
2022/05/25 00:07:34;;;;;;;0.35;0.35;;;;;;;12.82;100.00;99153.06;7392124;19;20033;-85
2022/05/25 00:10:01;;;;;;;0.20;0.20;;;;;;;12.86;100.00;99152.81;7394028;19;20108;-85
2022/05/25 00:12:27;;;;;;;0.20;0.20;;;;;;;12.80;100.00;99157.63;7403630;19;20003;-86
2022/05/25 00:14:53;;;;;;;2.35;1.08;;;;;;;12.77;100.00;99162.22;7401085;19;20039;-87
2022/05/25 00:17:20;;;;;;;0.50;0.50;;;;;;;12.76;100.00;99159.91;7400181;19;20082;-86
2022/05/25 00:20:01;;;;;;;7.40;0.30;;;;;;;12.73;100.00;99155.34;7401191;19;20015;-87
2022/05/25 00:22:41;;;;;;;11.93;0.68;;;;;;;12.73;100.00;99160.94;7403105;19;20089;-87
2022/05/25 00:25:10;;;;;;;0.10;0.10;;;;;;;12.75;100.00;99153.59;7400359;19;20119;-87
2022/05/25 00:27:36;;;;;;;0.85;0.43;;;;;;;12.74;100.00;99159.66;7399105;19;20035;-88
2022/05/25 00:30:03;;;;;;;1.23;0.68;;;;;;;12.73;100.00;99163.72;7399878;19;20010;-87
2022/05/25 00:32:30;;;;;;;1.05;0.30;;;;;;;12.76;100.00;99162.69;7403963;19;20018;-87
2022/05/25 00:34:56;;;;;;;0.10;0.10;;;;;;;12.70;100.00;99162.72;7399713;19;20011;-87
2022/05/25 00:37:22;;;;;;;0.10;0.10;;;;;;;12.71;100.00;99163.47;7399685;19;20025;-87
2022/05/25 00:39:48;;;;;;;0.50;0.28;;;;;;;12.76;100.00;99159.91;7399666;19;20011;-87
2022/05/25 00:42:16;;;;;;;0.75;0.30;;;;;;;12.71;100.00;99169.06;7402082;19;20089;-85
2022/05/25 00:44:42;;;;;;;0.10;0.10;;;;;;;12.74;100.00;99170.84;7396266;19;20002;-86
2022/05/25 00:47:11;;;;;;;1.10;0.75;;;;;;;12.77;100.00;99161.44;7400359;19;20014;-85
2022/05/25 00:49:37;;;;;;;0.25;0.25;;;;;;;12.84;100.00;99177.72;7396083;19;20035;-85
2022/05/25 00:52:07;;;;;;;0.52;0.40;;;;;;;12.88;100.00;99172.63;7401581;19;20108;-86
2022/05/25 00:54:55;;;;;;;0.45;0.30;;;;;;;12.83;100.00;99159.41;7400656;19;20027;-86
2022/05/25 00:57:25;;;;;;;0.63;0.40;;;;;;;12.78;100.00;99157.38;7399065;19;20015;-87
2022/05/25 01:00:09;;;;;;;0.20;0.20;;;;;;;12.90;100.00;99153.31;7401216;19;20006;-87
2022/05/25 01:02:42;;;;;;;0.17;0.10;;;;;;;12.91;100.00;99161.19;7400454;19;20505;-86
2022/05/25 01:05:10;;;;;;;0.47;0.40;;;;;;;12.89;100.00;99146.97;7397870;19;20015;-86
2022/05/25 01:08:00;;;;;;;0.20;0.20;;;;;;;12.85;100.00;99162.47;7398770;19;20693;-85
2022/05/25 01:11:00;;;;;;;0.35;0.30;;;;;;;12.85;100.00;99154.06;7397896;19;20035;-86
2022/05/25 01:13:58;;;;;;;0.10;0.10;;;;;;;12.82;100.00;99135.56;7399180;19;20037;-86
2022/05/25 01:17:03;;;;;;;0.40;0.40;;;;;;;12.86;100.00;99136.06;7396369;19;20017;-87
2022/05/25 01:19:39;;;;;;;0.30;0.30;;;;;;;12.92;100.00;99134.78;7398346;19;20022;-87
2022/05/25 01:22:29;;;;;;;0.47;0.47;;;;;;;12.93;100.00;99127.91;7397361;19;20007;-87
2022/05/25 01:25:11;;;;;;;0.63;0.60;;;;;;;12.96;100.00;99134.50;7400208;19;20011;-87
2022/05/25 01:27:41;;;;;;;0.43;0.43;;;;;;;12.96;100.00;99123.34;7399031;19;20021;-86
2022/05/25 01:30:39;;;;;;;0.20;0.20;;;;;;;13.03;100.00;99128.41;7399821;19;20037;-87
2022/05/25 01:33:30;;;;;;;0.30;0.30;;;;;;;13.02;100.00;99132.47;7402224;19;20018;-87
2022/05/25 01:36:19;;;;;;;;;;;;;;;12.97;100.00;99124.09;7397162;19;20022;-87
2022/05/25 01:38:58;;;;;;;0.85;0.50;;;;;;;13.06;100.00;99121.81;7395463;19;20218;-88
2022/05/25 01:41:50;;;;;;;0.35;0.30;;;;;;;13.14;100.00;99111.66;7394458;19;20014;-87
2022/05/25 01:44:22;;;;;;;1.67;0.60;;;;;;;13.15;100.00;99113.16;7391370;19;20018;-87
2022/05/25 01:46:58;;;;;;;0.55;0.30;;;;;;;13.13;100.00;99126.91;7395340;19;20019;-88
2022/05/25 01:49:32;;;;;;;0.40;0.40;;;;;;;13.11;100.00;99135.03;7396166;19;20014;-88
2022/05/25 01:52:03;;;;;;;0.20;0.20;;;;;;;13.15;100.00;99121.56;7399529;19;20526;-85
2022/05/25 01:54:35;;;;;;;0.40;0.40;;;;;;;13.25;100.00;99128.41;7397850;19;20602;-84
2022/05/25 01:57:09;;;;;;;0.30;0.30;;;;;;;13.22;100.00;99121.03;7393703;19;20010;-81
2022/05/25 01:59:36;;;;;;;0.75;0.38;;;;;;;13.15;100.00;99118.75;7395701;19;20895;-86
2022/05/25 02:04:51;;;;;;;0.20;0.20;;;;;;;13.09;100.00;99115.22;7397517;19;20010;-86
2022/05/25 02:07:32;;;;;;;0.55;0.13;;;;;;;13.08;100.00;99105.28;7396688;19;20006;-87
2022/05/25 02:10:01;;;;;;;0.82;0.40;;;;;;;13.16;100.00;99097.94;7396966;19;20069;-88
2022/05/25 02:12:52;;;;;;;0.40;0.22;;;;;;;13.22;100.00;99093.09;7400651;19;20007;-88
2022/05/25 02:15:34;;;;;;;1.08;0.57;;;;;;;13.25;100.00;99089.28;7396667;19;20375;-85
2022/05/25 02:18:14;;;;;;;0.20;0.20;;;;;;;13.23;100.00;99094.59;7395442;19;20781;-89
2022/05/25 02:20:49;;;;;;;5.10;0.30;;;;;;;13.26;100.00;99099.16;7396542;19;20006;-90
2022/05/25 02:23:33;;;;;;;0.10;0.10;;;;;;;13.28;100.00;99099.41;7400773;19;20513;-87
2022/05/25 02:26:04;;;;;;;0.15;0.15;;;;;;;13.32;100.00;99097.09;7400374;19;20476;-86
2022/05/25 02:28:37;;;;;;;0.20;0.20;;;;;;;13.35;100.00;99103.72;7395415;19;20775;-88
2022/05/25 02:31:08;;;;;;;0.88;0.52;;;;;;;13.25;100.00;99099.69;7396890;19;20030;-88
2022/05/25 02:33:41;;;;;;;0.20;0.13;;;;;;;13.23;100.00;99108.56;7395181;19;20086;-87
2022/05/25 02:36:10;;;;;;;0.10;0.10;;;;;;;13.24;100.00;99104.50;7394643;19;20014;-87
2022/05/25 02:38:42;;;;;;;0.20;0.20;;;;;;;13.34;100.00;99093.81;7393456;19;20098;-87
2022/05/25 02:41:24;;;;;;;1.15;0.30;;;;;;;13.34;100.00;99097.34;7396500;19;20007;-87
2022/05/25 02:43:51;;;;;;;0.35;0.32;;;;;;;13.32;100.00;99091.53;7396954;19;20406;-87
2022/05/25 02:46:17;;;;;;;0.55;0.20;;;;;;;13.22;100.00;99090.28;7393496;19;20022;-87
2022/05/25 02:48:43;;;;;;;0.10;0.10;;;;;;;11.94;100.00;99103.44;7394940;19;20018;-87
2022/05/25 02:51:09;;;;;;;0.45;0.30;;;;;;;11.76;100.00;99092.72;7394864;19;20011;-87
2022/05/25 02:53:35;;;;;;;0.35;0.30;;;;;;;11.67;100.00;99090.16;7395461;19;20131;-87
2022/05/25 02:56:02;;;;;;;0.47;0.40;;;;;;;11.61;100.00;99083.00;7399293;19;20015;-87
2022/05/25 02:58:28;;;;;;;0.20;0.20;;;;;;;11.56;100.00;99078.94;7394508;19;20094;-88
2022/05/25 03:00:55;;;;;;;3.30;0.60;;;;;;;11.54;100.00;99081.47;7395081;19;20124;-87
2022/05/25 03:03:21;;;;;;;1.65;0.40;;;;;;;11.51;100.00;99084.47;7395011;19;20010;-87
2022/05/25 03:05:48;;;;;;;3.28;0.43;;;;;;;11.53;100.00;99096.66;7393659;19;20011;-88
2022/05/25 03:08:14;;;;;;;0.40;0.35;;;;;;;11.53;100.00;99087.53;7394295;19;20045;-87
2022/05/25 03:10:41;;;;;;;0.25;0.25;;;;;;;11.58;100.00;99103.53;7395883;19;20033;-87
2022/05/25 03:13:09;;;;;;;5.38;0.40;;;;;;;11.64;100.00;99090.34;7397808;19;20003;-87
2022/05/25 03:15:36;;;;;;;0.10;0.10;;;;;;;11.64;100.00;99098.72;7395419;19;20025;-87
2022/05/25 03:18:03;;;;;;;0.15;0.15;;;;;;;11.59;100.00;99103.00;7395057;19;20018;-87
2022/05/25 03:20:29;;;;;;;0.20;0.10;;;;;;;11.64;100.00;99104.31;7393483;19;20006;-88
2022/05/25 03:22:56;;;;;;;0.30;0.30;;;;;;;11.58;100.00;99101.50;7399577;19;20461;-87
2022/05/25 03:25:22;;;;;;;0.20;0.20;;;;;;;11.59;100.00;99085.50;7394173;19;20003;-87
2022/05/25 03:27:48;;;;;;;0.17;0.17;;;;;;;11.58;100.00;99095.94;7394538;19;20049;-88
2022/05/25 03:30:16;;;;;;;0.10;0.10;;;;;;;11.53;100.00;99105.03;7394812;19;20074;-88
2022/05/25 03:32:43;;;;;;;0.35;0.30;;;;;;;11.52;100.00;99111.84;7399002;19;20576;-88
2022/05/25 03:35:10;;;;;;;2.83;0.63;;;;;;;11.53;100.00;99109.81;7394250;19;20029;-87
2022/05/25 03:37:37;;;;;;;2.28;0.65;;;;;;;11.54;100.00;99103.00;7391465;19;20074;-87
2022/05/25 03:40:06;;;;;;;0.40;0.20;;;;;;;11.61;100.00;99097.69;7394007;19;20015;-86
2022/05/25 03:42:33;;;;;;;0.10;0.10;;;;;;;11.56;100.00;99098.47;7396626;19;20026;-86
2022/05/25 03:44:59;;;;;;;2.40;0.57;;;;;;;11.58;100.00;99104.28;7398057;19;20472;-86
2022/05/25 03:47:25;;;;;;;0.85;0.63;;;;;;;13.11;100.00;99095.91;7403000;19;20011;-86
2022/05/25 03:49:52;;;;;;;0.57;0.30;;;;;;;13.41;100.00;99091.25;7398904;19;20046;-87
2022/05/25 03:52:23;;;;;;;2.60;0.43;;;;;;;13.39;100.00;99093.78;7403911;19;20363;-86
2022/05/25 03:54:49;;;;;;;;;;;;;;;13.52;100.00;99091.22;7404122;19;20033;-86
2022/05/25 03:57:15;;;;;;;12.82;0.70;;;;;;;13.59;100.00;99090.69;7396740;19;19914;-87
2022/05/25 03:59:42;;;;;;;0.80;0.30;;;;;;;13.64;100.00;99095.47;7398148;19;20030;-86
2022/05/25 04:02:08;;;;;;;0.45;0.30;;;;;;;13.69;100.00;99094.69;7400525;19;20022;-86
2022/05/25 04:04:34;;;;;;;0.65;0.40;;;;;;;13.53;100.00;99089.19;7397981;19;20022;-86
2022/05/25 04:07:00;;;;;;;0.38;0.38;;;;;;;13.52;100.00;99082.03;7398155;19;20018;-87
2022/05/25 04:09:27;;;;;;;0.75;0.25;;;;;;;13.47;100.00;99088.44;7398395;19;20023;-87
2022/05/25 04:11:53;;;;;;;0.45;0.22;;;;;;;13.56;100.00;99088.91;7401813;19;20006;-88
2022/05/25 04:14:19;;;;;;;0.22;0.22;;;;;;;13.62;100.00;99084.03;7399610;19;20019;-87
2022/05/25 04:16:46;;;;;;;0.70;0.70;;;;;;;13.63;100.00;99073.63;7398415;19;20007;-87
2022/05/25 04:19:12;;;;;;;0.30;0.20;;;;;;;13.59;100.00;99073.88;7400162;19;20027;-88
2022/05/25 04:21:39;;;;;;;0.63;0.60;;;;;;;13.64;100.00;99086.34;7401504;19;20484;-88
2022/05/25 04:24:06;;;;;;;0.70;0.70;;;;;;;13.73;100.00;99080.44;7401639;19;20018;-87
2022/05/25 04:26:33;;;;;;;1.30;0.38;;;;;;;13.73;100.00;99076.88;7400166;19;20025;-87
2022/05/25 04:29:02;;;;;;;0.60;0.60;;;;;;;13.65;100.00;99071.81;7398719;19;20011;-87
2022/05/25 04:31:28;;;;;;;4.45;0.70;;;;;;;13.65;100.00;99069.03;7399755;19;20050;-86
2022/05/25 04:33:55;;;;;;;1.35;0.55;;;;;;;13.63;100.00;99063.19;7401177;19;20011;-87
2022/05/25 04:36:21;;;;;;;3.60;0.30;;;;;;;13.62;100.00;99067.25;7398258;19;20014;-87
2022/05/25 04:38:47;;;;;;;1.73;0.65;;;;;;;13.61;100.00;99068.53;7400684;19;20007;-87
2022/05/25 04:41:13;;;;;;;0.77;0.52;;;;;;;13.63;100.00;99065.22;7400681;19;20018;-86
2022/05/25 04:43:40;;;;;;;2.00;0.30;;;;;;;13.63;100.00;99063.19;7400383;19;20469;-86
2022/05/25 04:46:09;;;;;;;0.77;0.17;;;;;;;13.73;100.00;99071.28;7399886;19;20018;-87
2022/05/25 04:48:35;;;;;;;0.63;0.43;;;;;;;13.67;100.00;99069.28;7399087;19;20050;-87
2022/05/25 04:51:02;;;;;;;0.47;0.47;;;;;;;13.67;100.00;99060.88;7398069;19;20003;-86
2022/05/25 04:53:28;;;;;;;0.55;0.32;;;;;;;13.50;100.00;99070.63;7399170;19;20461;-86
2022/05/25 04:58:45;;;;;;;0.55;0.55;;;;;;;13.59;100.00;99068.28;7400233;19;20010;-87
2022/05/25 05:01:13;;;;;;;0.85;0.43;;;;;;;13.66;100.00;99062.13;7399585;19;20006;-88
2022/05/25 05:03:40;;;;;;;0.90;0.30;;;;;;;13.73;100.00;99074.81;7400440;19;20082;-88
2022/05/25 05:06:09;;;;;;;2.45;0.57;;;;;;;13.79;100.00;99066.41;7397217;19;20015;-87
2022/05/25 05:08:36;;;;;;;0.13;0.13;;;;;;;13.81;100.00;99063.88;7395663;19;20014;-86
2022/05/25 05:11:15;;;;;;;0.52;0.30;;;;;;;13.99;100.00;99071.66;7397361;19;20532;-86
2022/05/25 05:13:42;;;;;;;0.63;0.30;;;;;;;14.01;100.00;99075.44;7397817;19;20104;-86
2022/05/25 05:16:13;;;;;;;0.30;0.20;;;;;;;14.04;100.00;99070.84;7397720;19;20457;-86
2022/05/25 05:18:41;;;;;;;3.72;0.65;;;;;;;14.04;100.00;99070.84;7398266;19;20007;-86
2022/05/25 05:21:43;;;;;;;0.50;0.40;;;;;;;14.04;100.00;99068.06;7398884;19;20018;-86
2022/05/25 05:24:09;;;;;;;0.90;0.50;;;;;;;14.10;100.00;99063.94;7400254;19;20007;-88
2022/05/25 05:26:36;;;;;;;0.40;0.20;;;;;;;13.94;100.00;99058.44;7396268;19;20046;-87
2022/05/25 05:29:02;;;;;;;0.60;0.60;;;;;;;13.96;100.00;99062.25;7394943;19;20023;-91
2022/05/25 05:31:28;;;;;;;0.20;0.20;;;;;;;14.10;100.00;99049.94;7399942;19;20010;-89
2022/05/25 05:33:54;;;;;;;0.20;0.10;;;;;;;14.04;100.00;99056.84;7394303;19;20023;-80
2022/05/25 05:36:26;;;;;;;4.15;0.85;;;;;;;13.76;100.00;99053.44;7397178;19;20015;-87
2022/05/25 05:38:55;;;;;;;0.88;0.47;;;;;;;14.13;100.00;99059.34;7398068;19;20319;-85
2022/05/25 05:41:25;;;;;;;0.52;0.35;;;;;;;14.17;100.00;99059.81;7398436;19;20112;-86
2022/05/25 05:43:52;;;;;;;0.38;0.38;;;;;;;13.66;100.00;99047.41;7397346;19;20014;-87
2022/05/25 05:46:19;;;;;;;0.60;0.45;;;;;;;12.70;100.00;99044.59;7397932;19;20028;-86
2022/05/25 05:48:46;;;;;;;0.47;0.20;;;;;;;12.57;100.00;99052.75;7396550;19;20011;-85
2022/05/25 05:51:12;;;;;;;1.75;0.63;;;;;;;12.61;100.00;99047.66;7397434;19;20023;-85
2022/05/25 05:53:40;;;;;;;0.45;0.45;;;;;;;12.67;100.00;99045.63;7397060;19;20022;-85
2022/05/25 05:56:07;;;;;;;1.00;0.68;;;;;;;12.83;100.00;99048.41;7395697;19;20018;-85
2022/05/25 05:58:33;;;;;;;2.05;0.40;;;;;;;12.96;100.00;99033.91;7396505;19;20010;-86
2022/05/25 06:00:59;;;;;;;0.30;0.30;;;;;;;13.07;100.00;99038.72;7397174;19;20026;-86
2022/05/25 06:03:26;;;;;;;7.30;1.00;;;;;;;13.14;100.00;99038.97;7397586;19;20022;-85
2022/05/25 06:05:52;;;;;;;0.77;0.57;;;;;;;13.94;100.00;99041.66;7397348;19;20435;-86
2022/05/25 06:08:21;;;;;;;1.20;0.40;;;;;;;14.69;100.00;99032.44;7396133;19;19999;-86
2022/05/25 06:10:47;;;;;;;1.10;0.40;;;;;;;14.88;100.00;99033.28;7398302;19;20017;-88
2022/05/25 06:13:14;;;;;;;2.20;0.45;;;;;;;14.96;100.00;99028.63;7398036;19;20042;-85
2022/05/25 06:21:25;;;;;;;7.13;0.30;;;;;;;15.23;100.00;99035.19;7397737;19;20023;-84
2022/05/25 06:23:52;;;;;;;0.40;0.38;;;;;;;15.32;100.00;99039.69;7394815;19;20018;-86
2022/05/25 06:26:18;;;;;;;1.08;0.50;;;;;;;15.37;100.00;99033.25;7397276;19;20014;-84
2022/05/25 06:28:45;;;;;;;0.43;0.20;;;;;;;15.31;100.00;99018.53;7395363;19;20082;-87
2022/05/25 06:31:12;;;;;;;0.85;0.38;;;;;;;15.41;100.00;99028.09;7397107;19;20015;-87
2022/05/25 06:33:38;;;;;;;0.60;0.17;;;;;;;15.49;100.00;99029.03;7395905;19;20025;-89
2022/05/25 06:36:16;;;;;;;2.92;0.65;;;;;;;15.58;100.00;99021.03;7396503;19;20078;-87
2022/05/25 06:38:43;;;;;;;0.30;0.30;;;;;;;15.64;100.00;99018.13;7396001;19;20070;-88
2022/05/25 06:41:09;;;;;;;5.63;0.65;;;;;;;15.64;100.00;99024.50;7397538;19;20014;-88
2022/05/25 06:43:35;;;;;;;0.73;0.50;;;;;;;15.70;100.00;99021.66;7394430;19;20021;-87
2022/05/25 06:46:03;;;;;;;6.93;0.70;;;;;;;14.88;100.00;99019.25;7395422;19;20007;-87
2022/05/25 06:48:29;;;;;;;0.10;0.10;;;;;;;15.54;100.00;99026.19;7393692;19;20011;-88
2022/05/25 06:50:56;;;;;;;0.10;0.10;;;;;;;15.64;100.00;99021.72;7396430;19;20013;-87
2022/05/25 06:53:22;;;;;;;0.65;0.50;;;;;;;15.92;100.00;99026.94;7400690;19;20090;-88
2022/05/25 06:55:48;;;;;;;0.40;0.40;;;;;;;15.84;100.00;99026.81;7399117;19;20010;-87
2022/05/25 06:58:14;;;;;;;6.80;0.20;;;;;;;15.87;100.00;99030.59;7394523;19;20010;-86
2022/05/25 07:00:40;;;;;;;0.10;0.10;;;;;;;15.79;100.00;99030.44;7397725;19;20422;-87
2022/05/25 07:03:06;;;;;;;0.63;0.25;;;;;;;15.73;100.00;99024.13;7399700;19;20019;-87
2022/05/25 07:05:33;;;;;;;4.50;0.43;;;;;;;15.74;100.00;99024.91;7393860;19;20015;-86
2022/05/25 07:08:00;;;;;;;2.30;0.40;;;;;;;15.84;100.00;99020.41;7395178;19;20007;-86
2022/05/25 07:10:26;;;;;;;4.82;0.32;;;;;;;15.89;100.00;99020.34;7399302;19;20052;-88
2022/05/25 07:12:52;;;;;;;0.35;0.20;;;;;;;15.89;100.00;99023.16;7398597;19;20010;-88
2022/05/25 07:15:18;;;;;;;1.15;0.50;;;;;;;15.87;100.00;99024.97;7395212;19;20484;-87
2022/05/25 07:17:47;;;;;;;0.32;0.32;;;;;;;15.88;100.00;99027.25;7399723;19;20026;-88
2022/05/25 07:20:13;;;;;;;0.55;0.45;;;;;;;15.98;100.00;99019.22;7393618;19;20030;-88
2022/05/25 07:22:40;;;;;;;0.45;0.40;;;;;;;15.99;100.00;99025.56;7398097;19;20029;-87
2022/05/25 07:25:07;;;;;;;3.55;0.73;;;;;;;15.96;100.00;99027.38;7398921;19;20026;-88
2022/05/25 07:27:33;;;;;;;0.20;0.20;;;;;;;15.98;100.00;99018.44;7395180;19;20090;-89
2022/05/25 07:29:59;;;;;;;11.65;0.80;;;;;;;16.04;100.00;99025.50;7397641;19;20314;-88
2022/05/25 07:32:27;;;;;;;4.18;0.88;;;;;;;15.93;100.00;99008.81;7398902;19;20021;-88
2022/05/25 07:34:59;;;;;;;1.85;0.68;;;;;;;16.10;100.00;99008.53;7394501;19;20027;-88
2022/05/25 07:37:32;;;;;;;0.25;0.22;;;;;;;16.16;100.00;99018.41;7391591;19;20376;-89
2022/05/25 07:40:08;;;;;;;4.78;0.68;;;;;;;16.18;100.00;99021.44;7392622;19;20021;-88
2022/05/25 07:42:34;;;;;;;0.30;0.20;;;;;;;16.21;100.00;99008.38;7395024;19;20044;-88
2022/05/25 07:45:03;;;;;;;1.20;0.30;;;;;;;16.11;100.00;99021.31;7394894;19;20019;-91
2022/05/25 07:47:32;;;;;;;2.20;0.30;;;;;;;16.15;100.00;99016.91;7393313;19;20631;-89
2022/05/25 07:49:59;;;;;;;2.10;0.50;;;;;;;16.04;100.00;99011.44;7392900;19;20014;-89
2022/05/25 07:52:28;;;;;;;2.08;0.55;;;;;;;15.96;100.00;99004.91;7397957;19;20027;-90
2022/05/25 07:54:55;;;;;;;0.30;0.30;;;;;;;15.99;100.00;99009.47;7396642;19;20046;-89
2022/05/25 07:57:21;;;;;;;1.08;0.28;;;;;;;16.13;100.00;99013.88;7392044;19;20029;-88
2022/05/25 07:59:48;;;;;;;3.65;0.30;;;;;;;16.27;100.00;99017.47;7396496;19;20003;-87
2022/05/25 08:08:02;;;;;;;0.35;0.20;;;;;;;16.48;100.00;99010.72;7394496;19;20103;-88
2022/05/25 08:10:28;;;;;;;1.95;0.40;;;;;;;16.48;100.00;99004.38;7395007;19;20015;-88
2022/05/25 08:12:57;;;;;;;2.15;0.70;;;;;;;16.63;100.00;99011.00;7396789;19;20015;-90
2022/05/25 08:15:25;;;;;;;0.30;0.20;;;;;;;16.68;100.00;99009.41;7394372;19;20035;-89
2022/05/25 08:17:51;;;;;;;5.80;0.32;;;;;;;16.74;100.00;99004.44;7393575;19;20015;-88
2022/05/25 08:20:19;;;;;;;2.75;0.55;;;;;;;16.78;100.00;99004.13;7395057;19;20015;-90
2022/05/25 08:22:45;;;;;;;0.73;0.40;;;;;;;16.90;100.00;99005.44;7398099;19;20007;-90
2022/05/25 08:25:14;;;;;;;0.10;0.10;;;;;;;16.98;100.00;99011.94;7397242;19;20003;-88
2022/05/25 08:27:40;;;;;;;0.40;0.22;;;;;;;16.95;100.00;99005.34;7398615;19;20356;-87
2022/05/25 08:30:14;;;;;;;0.47;0.22;;;;;;;16.96;100.00;99004.03;7392209;19;20034;-88
2022/05/25 08:32:41;;;;;;;1.25;0.35;;;;;;;17.00;100.00;98998.84;7402620;19;20359;-88
2022/05/25 08:35:07;;;;;;;1.75;0.38;;;;;;;16.89;100.00;98992.69;7402702;19;20042;-87
2022/05/25 08:37:33;;;;;;;0.10;0.10;;;;;;;16.99;100.00;98991.72;7400813;19;20007;-88
2022/05/25 08:39:59;;;;;;;0.70;0.30;;;;;;;17.06;100.00;98988.25;7399572;19;20086;-88
2022/05/25 08:42:30;;;;;;;0.95;0.20;;;;;;;17.06;100.00;98982.63;7403379;19;20018;-87
2022/05/25 08:44:58;;;;;;;0.30;0.10;;;;;;;17.16;100.00;98982.94;7401071;19;20024;-88
2022/05/25 08:47:24;;;;;;;0.10;0.10;;;;;;;17.29;100.00;98985.75;7399946;19;20017;-90
2022/05/25 08:49:51;;;;;;;1.08;0.43;;;;;;;17.34;100.00;98979.25;7397438;19;20014;-89
2022/05/25 08:52:23;;;;;;;0.20;0.10;;;;;;;17.46;100.00;98980.50;7402704;19;20019;-88
2022/05/25 08:54:50;;;;;;;0.10;0.10;;;;;;;17.53;100.00;98981.94;7402214;19;20022;-87
2022/05/25 08:57:23;;;;;;;0.10;0.10;;;;;;;17.61;100.00;98975.09;7401881;19;20017;-87
2022/05/25 08:59:55;;;;;;;0.10;0.10;;;;;;;17.67;100.00;98970.09;7403021;19;20037;-89
2022/05/25 09:02:47;;;;;;;0.68;0.30;;;;;;;17.56;100.00;98970.34;7402548;19;20014;-90
2022/05/25 09:05:28;;;;;;;1.17;0.20;;;;;;;17.39;100.00;98975.53;7397090;19;20022;-90
2022/05/25 09:08:21;;;;;;;0.40;0.32;;;;;;;17.36;100.00;98979.47;7400813;19;20042;-91
2022/05/25 09:10:53;;;;;;;0.10;0.10;;;;;;;17.03;100.00;98974.50;7400499;19;20014;-92
2022/05/25 09:13:27;;;;;;;0.10;0.05;;;;;;;16.95;100.00;98965.19;7403399;19;20419;-92
2022/05/25 09:19:23;;;;;;;0.77;0.20;;;;;;;17.15;100.00;98964.56;7399208;19;20011;-93
2022/05/25 09:21:54;;;;;;;0.52;0.20;;;;;;;17.36;100.00;98957.69;7399453;19;20034;-91
2022/05/25 09:24:23;;;;;;;0.10;0.10;;;;;;;17.47;100.00;98967.97;7398675;19;20472;-91
2022/05/25 09:26:50;;;;;;;0.17;0.10;;;;;;;17.71;100.00;98976.16;7397054;19;20456;-90
2022/05/25 09:29:18;;;;;;;0.10;0.10;;;;;;;17.70;100.00;98969.00;7402403;19;20021;-93
2022/05/25 09:31:50;;;;;;;4.00;0.22;;;;;;;17.75;100.00;98976.59;7401087;19;20021;-94
2022/05/25 09:34:28;;;;;;;0.70;0.20;;;;;;;17.90;100.00;98976.75;7400631;19;20025;-93
2022/05/25 09:37:06;;;;;;;1.75;0.30;;;;;;;18.06;100.00;98966.41;7400408;19;20011;-93
2022/05/25 09:39:38;;;;;;;0.10;0.10;;;;;;;17.94;100.00;98971.53;7404167;19;20371;-95
2022/05/25 09:42:06;;;;;;;0.10;0.00;;;;;;;17.86;100.00;98984.78;7400136;19;20011;-94
2022/05/25 09:44:33;;;;;;;0.20;0.15;;;;;;;17.83;100.00;98980.25;7402423;19;20010;-93
2022/05/25 09:47:04;;;;;;;1.17;0.10;;;;;;;17.89;100.00;98980.84;7397433;19;20014;-92
2022/05/25 09:49:36;;;;;;;;;;;;;;;17.89;100.00;98969.59;7402087;19;20025;-90
2022/05/25 09:52:11;;;;;;;0.22;0.10;;;;;;;17.94;100.00;98988.44;7396961;19;19935;-90
2022/05/25 09:54:49;;;;;;;0.10;0.00;;;;;;;17.73;100.00;98993.28;7396983;19;20850;-88
2022/05/25 09:57:26;;;;;;;0.10;0.10;;;;;;;17.66;100.00;98991.13;7396277;19;20070;-87
2022/05/25 10:00:00;;;;;;;0.20;0.03;;;;;;;17.73;100.00;98996.09;7396433;19;20046;-87
2022/05/25 10:02:36;;;;;;;0.65;0.10;;;;;;;17.66;100.00;99004.44;7400290;19;20371;-87
2022/05/25 10:05:28;;;;;;;0.20;0.20;;;;;;;17.83;100.00;98999.19;7398570;19;20006;-88
2022/05/25 10:08:04;;;;;;;0.57;0.00;;;;;;;17.78;100.00;98998.00;7397130;19;20010;-88
2022/05/25 10:10:50;;;;;;;0.05;0.00;;;;;;;17.73;100.00;99001.72;7397834;19;20015;-87
2022/05/25 10:13:21;;;;;;;0.10;0.10;;;;;;;17.87;100.00;98999.59;7402229;19;20508;-87
2022/05/25 10:15:51;;;;;;;1.80;0.20;;;;;;;18.02;100.00;99000.53;7400582;19;20603;-87
2022/05/25 10:18:36;;;;;;;0.10;0.00;;;;;;;18.19;100.00;98998.06;7396559;19;20118;-88
2022/05/25 10:21:09;;;;;;;0.35;0.10;;;;;;;18.53;100.00;98992.41;7399955;19;20025;-88
2022/05/25 10:23:41;;;;;;;0.10;0.10;;;;;;;18.89;100.00;98992.50;7397798;19;20098;-92
2022/05/25 10:26:12;;;;;;;0.73;0.38;;;;;;;18.94;100.00;98997.25;7399805;19;20011;-87
2022/05/25 10:29:09;;;;;;;0.10;0.10;;;;;;;18.74;100.00;98990.31;7400418;19;20011;-91
2022/05/25 10:37:37;;;;;;;0.10;0.00;;;;;;;18.75;100.00;99002.38;7395179;19;20017;-93
2022/05/25 10:40:06;;;;;;;0.30;0.10;;;;;;;18.64;100.00;99005.47;7396471;19;20019;-87
2022/05/25 10:42:37;;;;;;;2.83;0.10;;;;;;;18.65;100.00;99006.97;7397771;19;20032;-87
2022/05/25 10:45:14;;;;;;;;;;;;;;;18.63;100.00;99012.41;7396655;19;20027;-89
2022/05/25 10:47:54;;;;;;;0.45;0.28;;;;;;;18.81;100.00;99011.44;7398149;19;20341;-93
2022/05/25 10:50:26;;;;;;;0.10;0.00;;;;;;;18.82;100.00;99018.56;7395246;19;20015;-89
2022/05/25 10:53:04;;;;;;;1.00;0.10;;;;;;;19.12;100.00;99013.19;7400186;19;20074;-90
2022/05/25 10:55:47;;;;;;;2.20;0.22;;;;;;;19.23;100.00;99007.19;7398739;19;20029;-91
2022/05/25 10:58:38;;;;;;;0.30;0.30;;;;;;;19.20;100.00;99008.31;7395473;19;20038;-90
2022/05/25 11:01:27;;;;;;;0.20;0.15;;;;;;;19.06;100.00;99014.63;7397699;19;20015;-91
2022/05/25 11:04:04;;;;;;;1.13;0.25;;;;;;;18.98;100.00;99014.56;7397716;19;20035;-91
2022/05/25 11:06:37;;;;;;;0.10;0.00;;;;;;;19.13;100.00;99013.91;7400373;19;20038;-88
2022/05/25 11:09:14;;;;;;;0.10;0.03;;;;;;;19.58;100.00;99014.94;7404003;19;20014;-93
2022/05/25 11:12:05;;;;;;;0.35;0.28;;;;;;;20.34;100.00;99023.69;7409111;19;20011;-93
2022/05/25 11:14:49;;;;;;;;;;;;;;;20.64;100.00;99001.09;7403367;19;20023;-93
2022/05/25 11:17:25;;;;;;;0.00;0.00;;;;;;;20.77;100.00;99005.81;7396606;19;20246;-85
2022/05/25 11:20:04;;;;;;;0.10;0.10;;;;;;;20.91;100.00;98990.13;7394072;19;20015;-87
2022/05/25 11:23:15;;;;;;;1.13;0.20;;;;;;;20.39;100.00;99011.44;7398060;19;20496;-85
2022/05/25 11:25:59;;;;;;;0.10;0.10;;;;;;;20.14;100.00;99007.63;7394783;19;20018;-86
2022/05/25 11:28:48;;;;;;;0.10;0.10;;;;;;;19.72;100.00;99023.28;7393205;19;20018;-87
2022/05/25 11:31:36;;;;;;;0.40;0.20;;;;;;;19.27;100.00;99027.38;7400417;19;20010;-94
2022/05/25 11:34:24;;;;;;;1.10;0.10;;;;;;;18.93;100.00;99029.56;7408844;19;20010;-90
2022/05/25 11:37:05;;;;;;;1.30;0.10;;;;;;;18.89;100.00;99023.53;7405036;19;20323;-84
2022/05/25 11:39:43;;;;;;;0.82;0.10;;;;;;;19.22;100.00;99022.63;7407523;19;20015;-96
2022/05/25 11:42:18;;;;;;;0.65;0.10;;;;;;;19.55;100.00;99021.72;7396665;19;20464;-90
2022/05/25 11:44:49;;;;;;;0.13;0.10;;;;;;;19.71;100.00;99033.09;7394665;19;20011;-91
2022/05/25 11:47:47;;;;;;;0.10;0.00;;;;;;;19.85;100.00;99037.28;7394212;19;20022;-89
2022/05/25 11:50:31;;;;;;;0.52;0.10;;;;;;;19.86;100.00;99033.16;7390990;19;20014;-89
2022/05/25 11:53:12;;;;;;;2.20;0.40;;;;;;;20.02;100.00;99037.53;7400275;19;20505;-91
2022/05/25 11:55:41;;;;;;;0.60;0.20;;;;;;;20.37;100.00;99042.38;7399894;19;20469;-90
2022/05/25 11:58:15;;;;;;;0.20;0.20;;;;;;;20.46;100.00;99044.66;7393949;19;20013;-91
2022/05/25 12:01:12;;;;;;;0.10;0.10;;;;;;;20.48;100.00;99049.75;7395367;19;20007;-91
2022/05/25 12:04:04;;;;;;;0.10;0.10;;;;;;;20.49;100.00;99043.50;7395853;19;20009;-91
2022/05/25 12:07:01;;;;;;;0.00;0.00;;;;;;;20.38;100.00;99058.78;7397201;19;20052;-90
2022/05/25 12:09:39;;;;;;;0.20;0.20;;;;;;;20.33;100.00;99056.13;7399459;19;20023;-89
2022/05/25 12:12:17;;;;;;;1.77;0.13;;;;;;;20.10;100.00;99067.34;7405352;19;20025;-85
2022/05/25 12:14:49;;;;;;;0.10;0.00;;;;;;;20.30;100.00;99062.91;7401400;19;20010;-86